sensor_id;sensor_type;location;lat;lon;timestamp;P1;durP1;ratioP1;P2;durP2;ratioP2
23044;SDS011;11690;51.716;23.066;2023-08-01T00:00:17;9.27;;;3.90;;
23044;SDS011;11690;51.716;23.066;2023-08-01T00:03:06;5.53;;;3.45;;
23044;SDS011;11690;51.716;23.066;2023-08-01T00:05:33;12.35;;;3.90;;
23044;SDS011;11690;51.716;23.066;2023-08-01T00:08:00;7.03;;;3.95;;
23044;SDS011;11690;51.716;23.066;2023-08-01T00:10:29;12.80;;;3.70;;
23044;SDS011;11690;51.716;23.066;2023-08-01T00:12:56;5.45;;;3.20;;
23044;SDS011;11690;51.716;23.066;2023-08-01T00:15:23;6.90;;;3.33;;
23044;SDS011;11690;51.716;23.066;2023-08-01T00:17:50;8.68;;;3.95;;
23044;SDS011;11690;51.716;23.066;2023-08-01T00:20:17;5.80;;;3.33;;
23044;SDS011;11690;51.716;23.066;2023-08-01T00:22:45;4.78;;;3.28;;
23044;SDS011;11690;51.716;23.066;2023-08-01T00:25:12;8.77;;;3.45;;
23044;SDS011;11690;51.716;23.066;2023-08-01T00:27:39;8.52;;;3.50;;
23044;SDS011;11690;51.716;23.066;2023-08-01T00:30:07;5.30;;;3.75;;
23044;SDS011;11690;51.716;23.066;2023-08-01T00:32:35;5.78;;;3.58;;
23044;SDS011;11690;51.716;23.066;2023-08-01T00:35:02;4.60;;;3.58;;
23044;SDS011;11690;51.716;23.066;2023-08-01T00:37:30;6.28;;;4.03;;
23044;SDS011;11690;51.716;23.066;2023-08-01T00:39:57;6.43;;;3.83;;
23044;SDS011;11690;51.716;23.066;2023-08-01T00:42:24;9.40;;;3.75;;
23044;SDS011;11690;51.716;23.066;2023-08-01T00:44:51;9.10;;;3.40;;
23044;SDS011;11690;51.716;23.066;2023-08-01T00:47:20;7.05;;;3.67;;
23044;SDS011;11690;51.716;23.066;2023-08-01T00:49:48;6.90;;;3.75;;
23044;SDS011;11690;51.716;23.066;2023-08-01T00:52:16;5.75;;;3.72;;
23044;SDS011;11690;51.716;23.066;2023-08-01T00:54:43;11.00;;;3.53;;
23044;SDS011;11690;51.716;23.066;2023-08-01T00:57:11;5.28;;;3.47;;
23044;SDS011;11690;51.716;23.066;2023-08-01T00:59:38;5.75;;;3.67;;
23044;SDS011;11690;51.716;23.066;2023-08-01T01:02:05;10.85;;;4.25;;
23044;SDS011;11690;51.716;23.066;2023-08-01T01:04:32;7.10;;;4.00;;
23044;SDS011;11690;51.716;23.066;2023-08-01T01:07:00;12.43;;;3.90;;
23044;SDS011;11690;51.716;23.066;2023-08-01T01:09:30;8.25;;;3.92;;
23044;SDS011;11690;51.716;23.066;2023-08-01T01:12:00;5.60;;;3.22;;
23044;SDS011;11690;51.716;23.066;2023-08-01T01:14:28;9.40;;;3.63;;
23044;SDS011;11690;51.716;23.066;2023-08-01T01:16:55;7.57;;;4.03;;
23044;SDS011;11690;51.716;23.066;2023-08-01T01:19:22;7.32;;;4.50;;
23044;SDS011;11690;51.716;23.066;2023-08-01T01:21:50;8.98;;;4.05;;
23044;SDS011;11690;51.716;23.066;2023-08-01T01:24:26;7.28;;;3.75;;
23044;SDS011;11690;51.716;23.066;2023-08-01T01:26:54;8.32;;;4.05;;
23044;SDS011;11690;51.716;23.066;2023-08-01T01:29:23;7.38;;;3.80;;
23044;SDS011;11690;51.716;23.066;2023-08-01T01:31:50;5.47;;;3.35;;
23044;SDS011;11690;51.716;23.066;2023-08-01T01:34:18;7.57;;;3.47;;
23044;SDS011;11690;51.716;23.066;2023-08-01T01:36:45;6.07;;;3.85;;
23044;SDS011;11690;51.716;23.066;2023-08-01T01:39:12;6.65;;;3.83;;
23044;SDS011;11690;51.716;23.066;2023-08-01T01:41:40;6.43;;;3.47;;
23044;SDS011;11690;51.716;23.066;2023-08-01T01:44:07;5.97;;;3.78;;
23044;SDS011;11690;51.716;23.066;2023-08-01T01:46:34;6.20;;;3.50;;
23044;SDS011;11690;51.716;23.066;2023-08-01T01:49:01;7.07;;;3.63;;
23044;SDS011;11690;51.716;23.066;2023-08-01T01:51:29;12.38;;;3.70;;
23044;SDS011;11690;51.716;23.066;2023-08-01T01:53:57;10.50;;;4.18;;
23044;SDS011;11690;51.716;23.066;2023-08-01T01:56:24;6.55;;;4.10;;
23044;SDS011;11690;51.716;23.066;2023-08-01T01:58:53;6.82;;;3.75;;
23044;SDS011;11690;51.716;23.066;2023-08-01T02:01:20;6.38;;;4.10;;
23044;SDS011;11690;51.716;23.066;2023-08-01T02:03:48;14.93;;;4.32;;
23044;SDS011;11690;51.716;23.066;2023-08-01T02:06:15;8.65;;;3.90;;
23044;SDS011;11690;51.716;23.066;2023-08-01T02:08:43;7.40;;;3.85;;
23044;SDS011;11690;51.716;23.066;2023-08-01T02:11:11;7.00;;;3.65;;
23044;SDS011;11690;51.716;23.066;2023-08-01T02:13:38;7.05;;;3.80;;
23044;SDS011;11690;51.716;23.066;2023-08-01T02:16:05;8.55;;;3.60;;
23044;SDS011;11690;51.716;23.066;2023-08-01T02:18:32;8.52;;;3.50;;
23044;SDS011;11690;51.716;23.066;2023-08-01T02:20:59;5.20;;;3.25;;
23044;SDS011;11690;51.716;23.066;2023-08-01T02:23:26;8.10;;;4.00;;
23044;SDS011;11690;51.716;23.066;2023-08-01T02:25:54;6.53;;;3.90;;
23044;SDS011;11690;51.716;23.066;2023-08-01T02:28:22;12.95;;;3.22;;
23044;SDS011;11690;51.716;23.066;2023-08-01T02:30:49;5.55;;;3.33;;
23044;SDS011;11690;51.716;23.066;2023-08-01T02:33:17;11.63;;;4.10;;
23044;SDS011;11690;51.716;23.066;2023-08-01T02:35:46;8.27;;;3.95;;
23044;SDS011;11690;51.716;23.066;2023-08-01T02:38:13;6.72;;;3.75;;
23044;SDS011;11690;51.716;23.066;2023-08-01T02:40:41;6.40;;;3.85;;
23044;SDS011;11690;51.716;23.066;2023-08-01T02:43:08;6.50;;;3.83;;
23044;SDS011;11690;51.716;23.066;2023-08-01T02:45:35;5.20;;;4.00;;
23044;SDS011;11690;51.716;23.066;2023-08-01T02:48:02;14.98;;;3.92;;
23044;SDS011;11690;51.716;23.066;2023-08-01T02:50:30;8.88;;;3.63;;
23044;SDS011;11690;51.716;23.066;2023-08-01T02:52:57;8.05;;;4.22;;
23044;SDS011;11690;51.716;23.066;2023-08-01T02:55:24;11.85;;;4.22;;
23044;SDS011;11690;51.716;23.066;2023-08-01T02:57:51;7.40;;;3.90;;
23044;SDS011;11690;51.716;23.066;2023-08-01T03:00:18;5.47;;;3.72;;
23044;SDS011;11690;51.716;23.066;2023-08-01T03:02:46;7.10;;;3.85;;
23044;SDS011;11690;51.716;23.066;2023-08-01T03:05:14;8.43;;;3.00;;
23044;SDS011;11690;51.716;23.066;2023-08-01T03:07:41;4.97;;;3.13;;
23044;SDS011;11690;51.716;23.066;2023-08-01T03:10:09;6.47;;;3.50;;
23044;SDS011;11690;51.716;23.066;2023-08-01T03:12:42;4.70;;;3.25;;
23044;SDS011;11690;51.716;23.066;2023-08-01T03:15:11;7.57;;;3.20;;
23044;SDS011;11690;51.716;23.066;2023-08-01T03:17:38;4.43;;;2.50;;
23044;SDS011;11690;51.716;23.066;2023-08-01T03:20:05;4.90;;;3.20;;
23044;SDS011;11690;51.716;23.066;2023-08-01T03:22:38;5.40;;;2.97;;
23044;SDS011;11690;51.716;23.066;2023-08-01T03:25:07;5.97;;;3.13;;
23044;SDS011;11690;51.716;23.066;2023-08-01T03:27:34;3.75;;;2.35;;
23044;SDS011;11690;51.716;23.066;2023-08-01T03:30:02;4.55;;;2.88;;
23044;SDS011;11690;51.716;23.066;2023-08-01T03:32:31;6.00;;;2.90;;
23044;SDS011;11690;51.716;23.066;2023-08-01T03:34:58;6.35;;;3.00;;
23044;SDS011;11690;51.716;23.066;2023-08-01T03:37:25;5.75;;;2.90;;
23044;SDS011;11690;51.716;23.066;2023-08-01T03:39:53;4.03;;;2.75;;
23044;SDS011;11690;51.716;23.066;2023-08-01T03:42:20;6.00;;;2.88;;
23044;SDS011;11690;51.716;23.066;2023-08-01T03:44:47;4.22;;;2.72;;
23044;SDS011;11690;51.716;23.066;2023-08-01T03:47:14;3.58;;;2.55;;
23044;SDS011;11690;51.716;23.066;2023-08-01T03:49:41;4.78;;;2.80;;
23044;SDS011;11690;51.716;23.066;2023-08-01T03:52:08;9.90;;;3.20;;
23044;SDS011;11690;51.716;23.066;2023-08-01T03:54:35;5.18;;;2.97;;
23044;SDS011;11690;51.716;23.066;2023-08-01T03:57:02;4.35;;;2.70;;
23044;SDS011;11690;51.716;23.066;2023-08-01T03:59:30;4.90;;;2.47;;
23044;SDS011;11690;51.716;23.066;2023-08-01T04:01:57;3.95;;;2.40;;
23044;SDS011;11690;51.716;23.066;2023-08-01T04:04:24;4.63;;;2.85;;
23044;SDS011;11690;51.716;23.066;2023-08-01T04:06:51;8.48;;;2.70;;
23044;SDS011;11690;51.716;23.066;2023-08-01T04:09:18;5.40;;;2.47;;
23044;SDS011;11690;51.716;23.066;2023-08-01T04:11:45;5.28;;;2.45;;
23044;SDS011;11690;51.716;23.066;2023-08-01T04:14:13;5.43;;;3.05;;
23044;SDS011;11690;51.716;23.066;2023-08-01T04:16:40;7.05;;;2.38;;
23044;SDS011;11690;51.716;23.066;2023-08-01T04:19:07;4.03;;;2.30;;
23044;SDS011;11690;51.716;23.066;2023-08-01T04:21:34;7.90;;;2.95;;
23044;SDS011;11690;51.716;23.066;2023-08-01T04:24:02;4.15;;;2.83;;
23044;SDS011;11690;51.716;23.066;2023-08-01T04:26:29;3.58;;;2.70;;
23044;SDS011;11690;51.716;23.066;2023-08-01T04:28:56;4.85;;;3.05;;
23044;SDS011;11690;51.716;23.066;2023-08-01T04:31:23;7.72;;;2.97;;
23044;SDS011;11690;51.716;23.066;2023-08-01T04:33:50;7.03;;;2.70;;
23044;SDS011;11690;51.716;23.066;2023-08-01T04:36:17;4.63;;;2.22;;
23044;SDS011;11690;51.716;23.066;2023-08-01T04:38:45;4.68;;;2.47;;
23044;SDS011;11690;51.716;23.066;2023-08-01T04:41:12;6.95;;;2.60;;
23044;SDS011;11690;51.716;23.066;2023-08-01T04:43:39;5.60;;;2.60;;
23044;SDS011;11690;51.716;23.066;2023-08-01T04:46:06;3.72;;;2.53;;
23044;SDS011;11690;51.716;23.066;2023-08-01T04:48:33;5.50;;;2.80;;
23044;SDS011;11690;51.716;23.066;2023-08-01T04:51:00;7.15;;;2.70;;
23044;SDS011;11690;51.716;23.066;2023-08-01T04:53:27;9.32;;;2.83;;
23044;SDS011;11690;51.716;23.066;2023-08-01T04:55:54;8.27;;;3.00;;
23044;SDS011;11690;51.716;23.066;2023-08-01T04:58:22;3.83;;;2.60;;
23044;SDS011;11690;51.716;23.066;2023-08-01T05:00:49;4.13;;;2.47;;
23044;SDS011;11690;51.716;23.066;2023-08-01T05:03:16;4.82;;;2.83;;
23044;SDS011;11690;51.716;23.066;2023-08-01T05:05:43;4.50;;;2.40;;
23044;SDS011;11690;51.716;23.066;2023-08-01T05:08:10;3.15;;;2.40;;
23044;SDS011;11690;51.716;23.066;2023-08-01T05:10:37;4.80;;;2.60;;
23044;SDS011;11690;51.716;23.066;2023-08-01T05:13:05;3.85;;;2.78;;
23044;SDS011;11690;51.716;23.066;2023-08-01T05:15:32;3.55;;;2.45;;
23044;SDS011;11690;51.716;23.066;2023-08-01T05:17:59;5.03;;;2.65;;
23044;SDS011;11690;51.716;23.066;2023-08-01T05:20:26;6.45;;;2.70;;
23044;SDS011;11690;51.716;23.066;2023-08-01T05:22:58;5.38;;;2.65;;
23044;SDS011;11690;51.716;23.066;2023-08-01T05:25:25;5.35;;;2.72;;
23044;SDS011;11690;51.716;23.066;2023-08-01T05:27:53;4.57;;;2.40;;
23044;SDS011;11690;51.716;23.066;2023-08-01T05:30:20;4.22;;;2.42;;
23044;SDS011;11690;51.716;23.066;2023-08-01T05:32:47;4.05;;;2.33;;
23044;SDS011;11690;51.716;23.066;2023-08-01T05:35:14;4.63;;;1.98;;
23044;SDS011;11690;51.716;23.066;2023-08-01T05:37:41;5.38;;;2.20;;
23044;SDS011;11690;51.716;23.066;2023-08-01T05:40:09;3.22;;;2.15;;
23044;SDS011;11690;51.716;23.066;2023-08-01T05:42:36;5.47;;;2.15;;
23044;SDS011;11690;51.716;23.066;2023-08-01T05:45:03;4.72;;;2.22;;
23044;SDS011;11690;51.716;23.066;2023-08-01T05:47:31;4.28;;;2.20;;
23044;SDS011;11690;51.716;23.066;2023-08-01T05:49:58;7.75;;;1.60;;
23044;SDS011;11690;51.716;23.066;2023-08-01T05:52:25;3.97;;;1.77;;
23044;SDS011;11690;51.716;23.066;2023-08-01T05:54:52;2.78;;;1.77;;
23044;SDS011;11690;51.716;23.066;2023-08-01T05:57:20;2.80;;;1.83;;
23044;SDS011;11690;51.716;23.066;2023-08-01T05:59:46;4.97;;;1.90;;
23044;SDS011;11690;51.716;23.066;2023-08-01T06:02:14;4.97;;;1.77;;
23044;SDS011;11690;51.716;23.066;2023-08-01T06:04:41;5.13;;;2.05;;
23044;SDS011;11690;51.716;23.066;2023-08-01T06:07:08;3.97;;;1.70;;
23044;SDS011;11690;51.716;23.066;2023-08-01T06:09:35;2.28;;;1.50;;
23044;SDS011;11690;51.716;23.066;2023-08-01T06:12:03;4.10;;;1.75;;
23044;SDS011;11690;51.716;23.066;2023-08-01T06:14:30;3.67;;;1.70;;
23044;SDS011;11690;51.716;23.066;2023-08-01T06:16:57;2.22;;;1.33;;
23044;SDS011;11690;51.716;23.066;2023-08-01T06:19:24;1.95;;;1.08;;
23044;SDS011;11690;51.716;23.066;2023-08-01T06:21:52;3.60;;;1.30;;
23044;SDS011;11690;51.716;23.066;2023-08-01T06:24:19;2.58;;;1.25;;
23044;SDS011;11690;51.716;23.066;2023-08-01T06:26:46;1.98;;;1.30;;
23044;SDS011;11690;51.716;23.066;2023-08-01T06:29:13;3.92;;;1.30;;
23044;SDS011;11690;51.716;23.066;2023-08-01T06:31:40;1.63;;;1.40;;
23044;SDS011;11690;51.716;23.066;2023-08-01T06:34:07;3.45;;;1.20;;
23044;SDS011;11690;51.716;23.066;2023-08-01T06:36:35;1.85;;;1.00;;
23044;SDS011;11690;51.716;23.066;2023-08-01T06:39:02;2.42;;;1.20;;
23044;SDS011;11690;51.716;23.066;2023-08-01T06:41:30;1.33;;;0.93;;
23044;SDS011;11690;51.716;23.066;2023-08-01T06:43:57;4.97;;;1.42;;
23044;SDS011;11690;51.716;23.066;2023-08-01T06:46:24;1.65;;;1.10;;
23044;SDS011;11690;51.716;23.066;2023-08-01T06:48:51;4.10;;;1.40;;
23044;SDS011;11690;51.716;23.066;2023-08-01T06:51:18;2.58;;;1.17;;
23044;SDS011;11690;51.716;23.066;2023-08-01T06:53:45;1.73;;;1.17;;
23044;SDS011;11690;51.716;23.066;2023-08-01T06:56:13;1.55;;;1.08;;
23044;SDS011;11690;51.716;23.066;2023-08-01T06:58:40;4.07;;;1.38;;
23044;SDS011;11690;51.716;23.066;2023-08-01T07:01:07;4.45;;;1.35;;
23044;SDS011;11690;51.716;23.066;2023-08-01T07:03:34;2.33;;;1.17;;
23044;SDS011;11690;51.716;23.066;2023-08-01T07:06:01;2.08;;;1.33;;
23044;SDS011;11690;51.716;23.066;2023-08-01T07:08:31;6.15;;;1.73;;
23044;SDS011;11690;51.716;23.066;2023-08-01T07:10:59;3.47;;;1.30;;
23044;SDS011;11690;51.716;23.066;2023-08-01T07:13:26;1.73;;;1.20;;
23044;SDS011;11690;51.716;23.066;2023-08-01T07:15:53;2.45;;;1.35;;
23044;SDS011;11690;51.716;23.066;2023-08-01T07:18:21;1.92;;;1.20;;
23044;SDS011;11690;51.716;23.066;2023-08-01T07:20:58;4.60;;;1.30;;
23044;SDS011;11690;51.716;23.066;2023-08-01T07:23:26;6.18;;;1.27;;
23044;SDS011;11690;51.716;23.066;2023-08-01T07:25:53;3.83;;;1.10;;
23044;SDS011;11690;51.716;23.066;2023-08-01T07:28:20;8.13;;;1.20;;
23044;SDS011;11690;51.716;23.066;2023-08-01T07:31:03;1.52;;;1.00;;
23044;SDS011;11690;51.716;23.066;2023-08-01T07:33:32;2.00;;;1.38;;
23044;SDS011;11690;51.716;23.066;2023-08-01T07:36:00;5.55;;;1.52;;
23044;SDS011;11690;51.716;23.066;2023-08-01T07:38:27;3.00;;;1.33;;
23044;SDS011;11690;51.716;23.066;2023-08-01T07:40:55;3.10;;;1.50;;
23044;SDS011;11690;51.716;23.066;2023-08-01T07:43:22;1.95;;;1.20;;
23044;SDS011;11690;51.716;23.066;2023-08-01T07:45:54;2.70;;;1.15;;
23044;SDS011;11690;51.716;23.066;2023-08-01T07:48:22;1.83;;;1.20;;
23044;SDS011;11690;51.716;23.066;2023-08-01T07:50:50;2.75;;;1.40;;
23044;SDS011;11690;51.716;23.066;2023-08-01T07:53:17;5.00;;;1.10;;
23044;SDS011;11690;51.716;23.066;2023-08-01T07:55:44;1.33;;;0.77;;
23044;SDS011;11690;51.716;23.066;2023-08-01T07:58:11;1.50;;;1.05;;
23044;SDS011;11690;51.716;23.066;2023-08-01T08:00:39;1.65;;;1.30;;
23044;SDS011;11690;51.716;23.066;2023-08-01T08:03:06;1.67;;;1.15;;
23044;SDS011;11690;51.716;23.066;2023-08-01T08:05:35;3.08;;;1.15;;
23044;SDS011;11690;51.716;23.066;2023-08-01T08:08:05;2.08;;;1.10;;
23044;SDS011;11690;51.716;23.066;2023-08-01T08:10:33;4.22;;;1.38;;
23044;SDS011;11690;51.716;23.066;2023-08-01T08:13:00;1.95;;;1.10;;
23044;SDS011;11690;51.716;23.066;2023-08-01T08:15:27;1.58;;;1.05;;
23044;SDS011;11690;51.716;23.066;2023-08-01T08:17:56;1.85;;;1.20;;
23044;SDS011;11690;51.716;23.066;2023-08-01T08:20:24;1.90;;;1.17;;
23044;SDS011;11690;51.716;23.066;2023-08-01T08:22:51;4.40;;;1.13;;
23044;SDS011;11690;51.716;23.066;2023-08-01T08:25:18;2.30;;;1.33;;
23044;SDS011;11690;51.716;23.066;2023-08-01T08:27:45;1.45;;;1.05;;
23044;SDS011;11690;51.716;23.066;2023-08-01T08:30:12;1.80;;;1.17;;
23044;SDS011;11690;51.716;23.066;2023-08-01T08:32:39;3.58;;;1.23;;
23044;SDS011;11690;51.716;23.066;2023-08-01T08:35:07;2.17;;;1.30;;
23044;SDS011;11690;51.716;23.066;2023-08-01T08:37:34;1.92;;;1.15;;
23044;SDS011;11690;51.716;23.066;2023-08-01T08:40:01;2.65;;;1.33;;
23044;SDS011;11690;51.716;23.066;2023-08-01T08:42:28;2.33;;;1.20;;
23044;SDS011;11690;51.716;23.066;2023-08-01T08:44:55;2.88;;;1.30;;
23044;SDS011;11690;51.716;23.066;2023-08-01T08:47:26;3.03;;;1.00;;
23044;SDS011;11690;51.716;23.066;2023-08-01T08:49:55;1.95;;;1.20;;
23044;SDS011;11690;51.716;23.066;2023-08-01T08:52:25;2.42;;;1.25;;
23044;SDS011;11690;51.716;23.066;2023-08-01T08:54:53;1.95;;;1.00;;
23044;SDS011;11690;51.716;23.066;2023-08-01T08:57:21;1.92;;;1.33;;
23044;SDS011;11690;51.716;23.066;2023-08-01T08:59:49;1.52;;;1.05;;
23044;SDS011;11690;51.716;23.066;2023-08-01T09:02:16;2.33;;;1.40;;
23044;SDS011;11690;51.716;23.066;2023-08-01T09:04:44;4.97;;;1.17;;
23044;SDS011;11690;51.716;23.066;2023-08-01T09:07:11;3.28;;;1.15;;
23044;SDS011;11690;51.716;23.066;2023-08-01T09:09:41;1.70;;;1.08;;
23044;SDS011;11690;51.716;23.066;2023-08-01T09:12:08;3.47;;;1.35;;
23044;SDS011;11690;51.716;23.066;2023-08-01T09:14:36;6.05;;;1.42;;
23044;SDS011;11690;51.716;23.066;2023-08-01T09:17:09;1.95;;;1.40;;
23044;SDS011;11690;51.716;23.066;2023-08-01T09:19:37;3.05;;;1.20;;
23044;SDS011;11690;51.716;23.066;2023-08-01T09:22:09;3.63;;;1.40;;
23044;SDS011;11690;51.716;23.066;2023-08-01T09:24:38;2.45;;;1.30;;
23044;SDS011;11690;51.716;23.066;2023-08-01T09:27:05;2.72;;;1.38;;
23044;SDS011;11690;51.716;23.066;2023-08-01T09:29:33;2.92;;;1.33;;
23044;SDS011;11690;51.716;23.066;2023-08-01T09:32:00;3.20;;;1.13;;
23044;SDS011;11690;51.716;23.066;2023-08-01T09:34:27;2.60;;;1.30;;
23044;SDS011;11690;51.716;23.066;2023-08-01T09:36:58;2.22;;;1.23;;
23044;SDS011;11690;51.716;23.066;2023-08-01T09:39:26;3.60;;;1.33;;
23044;SDS011;11690;51.716;23.066;2023-08-01T09:42:00;1.73;;;1.20;;
23044;SDS011;11690;51.716;23.066;2023-08-01T09:44:28;14.45;;;1.40;;
23044;SDS011;11690;51.716;23.066;2023-08-01T09:46:57;2.17;;;1.38;;
23044;SDS011;11690;51.716;23.066;2023-08-01T09:49:28;3.67;;;1.35;;
23044;SDS011;11690;51.716;23.066;2023-08-01T09:51:55;2.20;;;1.52;;
23044;SDS011;11690;51.716;23.066;2023-08-01T09:54:23;2.67;;;1.25;;
23044;SDS011;11690;51.716;23.066;2023-08-01T09:56:51;2.33;;;1.50;;
23044;SDS011;11690;51.716;23.066;2023-08-01T09:59:21;3.42;;;1.23;;
23044;SDS011;11690;51.716;23.066;2023-08-01T10:01:51;1.42;;;1.10;;
23044;SDS011;11690;51.716;23.066;2023-08-01T10:04:24;2.63;;;1.25;;
23044;SDS011;11690;51.716;23.066;2023-08-01T10:06:54;1.90;;;1.30;;
23044;SDS011;11690;51.716;23.066;2023-08-01T10:09:25;2.35;;;1.33;;
23044;SDS011;11690;51.716;23.066;2023-08-01T10:11:52;1.50;;;1.27;;
23044;SDS011;11690;51.716;23.066;2023-08-01T10:14:23;3.15;;;1.30;;
23044;SDS011;11690;51.716;23.066;2023-08-01T10:16:51;2.92;;;1.45;;
23044;SDS011;11690;51.716;23.066;2023-08-01T10:19:19;1.73;;;1.00;;
23044;SDS011;11690;51.716;23.066;2023-08-01T10:21:46;2.65;;;1.05;;
23044;SDS011;11690;51.716;23.066;2023-08-01T10:24:14;1.95;;;1.00;;
23044;SDS011;11690;51.716;23.066;2023-08-01T10:26:46;4.38;;;1.10;;
23044;SDS011;11690;51.716;23.066;2023-08-01T10:29:13;1.63;;;1.10;;
23044;SDS011;11690;51.716;23.066;2023-08-01T10:31:50;1.10;;;1.00;;
23044;SDS011;11690;51.716;23.066;2023-08-01T10:34:18;2.25;;;1.00;;
23044;SDS011;11690;51.716;23.066;2023-08-01T10:36:56;2.83;;;1.40;;
23044;SDS011;11690;51.716;23.066;2023-08-01T10:39:25;2.15;;;1.20;;
23044;SDS011;11690;51.716;23.066;2023-08-01T10:41:57;2.75;;;1.20;;
23044;SDS011;11690;51.716;23.066;2023-08-01T10:44:31;2.15;;;1.00;;
23044;SDS011;11690;51.716;23.066;2023-08-01T10:47:02;1.98;;;1.10;;
23044;SDS011;11690;51.716;23.066;2023-08-01T10:49:34;1.50;;;1.13;;
23044;SDS011;11690;51.716;23.066;2023-08-01T10:52:23;2.13;;;1.25;;
23044;SDS011;11690;51.716;23.066;2023-08-01T10:54:58;3.03;;;1.42;;
23044;SDS011;11690;51.716;23.066;2023-08-01T10:57:27;1.52;;;1.13;;
23044;SDS011;11690;51.716;23.066;2023-08-01T10:59:58;3.47;;;1.38;;
23044;SDS011;11690;51.716;23.066;2023-08-01T11:02:27;1.50;;;1.35;;
23044;SDS011;11690;51.716;23.066;2023-08-01T11:04:59;1.27;;;1.13;;
23044;SDS011;11690;51.716;23.066;2023-08-01T11:07:29;1.70;;;1.10;;
23044;SDS011;11690;51.716;23.066;2023-08-01T11:10:03;1.52;;;1.08;;
23044;SDS011;11690;51.716;23.066;2023-08-01T11:12:40;3.40;;;1.00;;
23044;SDS011;11690;51.716;23.066;2023-08-01T11:15:10;7.57;;;1.48;;
23044;SDS011;11690;51.716;23.066;2023-08-01T11:17:41;4.40;;;1.35;;
23044;SDS011;11690;51.716;23.066;2023-08-01T11:20:10;1.60;;;1.27;;
23044;SDS011;11690;51.716;23.066;2023-08-01T11:22:50;2.10;;;1.27;;
23044;SDS011;11690;51.716;23.066;2023-08-01T11:25:19;2.45;;;1.20;;
23044;SDS011;11690;51.716;23.066;2023-08-01T11:27:57;1.73;;;1.00;;
23044;SDS011;11690;51.716;23.066;2023-08-01T11:30:33;1.98;;;1.20;;
23044;SDS011;11690;51.716;23.066;2023-08-01T11:33:01;1.73;;;1.40;;
23044;SDS011;11690;51.716;23.066;2023-08-01T11:35:30;2.17;;;1.45;;
23044;SDS011;11690;51.716;23.066;2023-08-01T11:37:57;5.03;;;1.55;;
23044;SDS011;11690;51.716;23.066;2023-08-01T11:40:25;1.55;;;1.38;;
23044;SDS011;11690;51.716;23.066;2023-08-01T11:42:55;2.05;;;1.30;;
23044;SDS011;11690;51.716;23.066;2023-08-01T11:45:24;2.55;;;1.30;;
23044;SDS011;11690;51.716;23.066;2023-08-01T11:47:51;1.20;;;1.10;;
23044;SDS011;11690;51.716;23.066;2023-08-01T11:50:22;2.90;;;1.77;;
23044;SDS011;11690;51.716;23.066;2023-08-01T11:52:50;2.60;;;1.30;;
23044;SDS011;11690;51.716;23.066;2023-08-01T11:55:18;3.83;;;1.67;;
23044;SDS011;11690;51.716;23.066;2023-08-01T11:57:53;1.45;;;1.20;;
23044;SDS011;11690;51.716;23.066;2023-08-01T12:00:24;2.42;;;1.23;;
23044;SDS011;11690;51.716;23.066;2023-08-01T12:03:05;1.58;;;1.20;;
23044;SDS011;11690;51.716;23.066;2023-08-01T12:05:42;3.20;;;1.55;;
23044;SDS011;11690;51.716;23.066;2023-08-01T12:08:14;2.30;;;1.52;;
23044;SDS011;11690;51.716;23.066;2023-08-01T12:10:43;2.17;;;1.67;;
23044;SDS011;11690;51.716;23.066;2023-08-01T12:13:22;1.40;;;1.30;;
23044;SDS011;11690;51.716;23.066;2023-08-01T12:15:50;2.08;;;1.40;;
23044;SDS011;11690;51.716;23.066;2023-08-01T12:20:55;2.00;;;1.60;;
23044;SDS011;11690;51.716;23.066;2023-08-01T12:23:22;1.95;;;1.30;;
23044;SDS011;11690;51.716;23.066;2023-08-01T12:25:50;1.98;;;1.45;;
23044;SDS011;11690;51.716;23.066;2023-08-01T12:28:17;1.45;;;1.20;;
23044;SDS011;11690;51.716;23.066;2023-08-01T12:30:44;2.45;;;1.23;;
23044;SDS011;11690;51.716;23.066;2023-08-01T12:33:11;2.05;;;1.10;;
23044;SDS011;11690;51.716;23.066;2023-08-01T12:35:39;2.58;;;1.42;;
23044;SDS011;11690;51.716;23.066;2023-08-01T12:38:08;1.50;;;1.10;;
23044;SDS011;11690;51.716;23.066;2023-08-01T12:40:36;2.30;;;1.50;;
23044;SDS011;11690;51.716;23.066;2023-08-01T12:43:03;2.38;;;1.30;;
23044;SDS011;11690;51.716;23.066;2023-08-01T12:45:30;1.50;;;1.30;;
23044;SDS011;11690;51.716;23.066;2023-08-01T12:47:57;1.90;;;1.30;;
23044;SDS011;11690;51.716;23.066;2023-08-01T12:50:25;2.75;;;1.50;;
23044;SDS011;11690;51.716;23.066;2023-08-01T12:52:52;2.03;;;1.38;;
23044;SDS011;11690;51.716;23.066;2023-08-01T12:55:20;2.70;;;1.50;;
23044;SDS011;11690;51.716;23.066;2023-08-01T12:57:47;1.75;;;1.25;;
23044;SDS011;11690;51.716;23.066;2023-08-01T13:00:14;1.48;;;1.33;;
23044;SDS011;11690;51.716;23.066;2023-08-01T13:02:41;1.65;;;1.40;;
23044;SDS011;11690;51.716;23.066;2023-08-01T13:05:09;1.63;;;1.17;;
23044;SDS011;11690;51.716;23.066;2023-08-01T13:07:36;2.22;;;1.40;;
23044;SDS011;11690;51.716;23.066;2023-08-01T13:10:03;2.28;;;1.42;;
23044;SDS011;11690;51.716;23.066;2023-08-01T13:12:31;3.65;;;1.48;;
23044;SDS011;11690;51.716;23.066;2023-08-01T13:14:58;4.45;;;2.00;;
23044;SDS011;11690;51.716;23.066;2023-08-01T13:17:42;3.15;;;1.52;;
23044;SDS011;11690;51.716;23.066;2023-08-01T13:20:09;2.35;;;1.50;;
23044;SDS011;11690;51.716;23.066;2023-08-01T13:22:36;1.77;;;1.30;;
23044;SDS011;11690;51.716;23.066;2023-08-01T13:25:04;3.50;;;1.77;;
23044;SDS011;11690;51.716;23.066;2023-08-01T13:27:35;4.53;;;1.70;;
23044;SDS011;11690;51.716;23.066;2023-08-01T13:30:03;2.47;;;1.52;;
23044;SDS011;11690;51.716;23.066;2023-08-01T13:32:30;1.95;;;1.33;;
23044;SDS011;11690;51.716;23.066;2023-08-01T13:34:57;1.48;;;1.17;;
23044;SDS011;11690;51.716;23.066;2023-08-01T13:37:24;1.92;;;1.38;;
23044;SDS011;11690;51.716;23.066;2023-08-01T13:39:52;2.08;;;1.67;;
23044;SDS011;11690;51.716;23.066;2023-08-01T13:42:19;3.75;;;1.55;;
23044;SDS011;11690;51.716;23.066;2023-08-01T13:44:46;2.30;;;1.30;;
23044;SDS011;11690;51.716;23.066;2023-08-01T13:47:13;1.80;;;1.33;;
23044;SDS011;11690;51.716;23.066;2023-08-01T13:49:40;3.33;;;1.15;;
23044;SDS011;11690;51.716;23.066;2023-08-01T13:52:07;3.53;;;1.40;;
23044;SDS011;11690;51.716;23.066;2023-08-01T13:54:35;4.30;;;1.60;;
23044;SDS011;11690;51.716;23.066;2023-08-01T13:57:02;2.55;;;1.70;;
23044;SDS011;11690;51.716;23.066;2023-08-01T13:59:29;2.95;;;1.42;;
23044;SDS011;11690;51.716;23.066;2023-08-01T14:01:56;2.80;;;1.60;;
23044;SDS011;11690;51.716;23.066;2023-08-01T14:04:24;1.52;;;1.33;;
23044;SDS011;11690;51.716;23.066;2023-08-01T14:06:51;4.80;;;1.77;;
23044;SDS011;11690;51.716;23.066;2023-08-01T14:09:18;2.28;;;1.50;;
23044;SDS011;11690;51.716;23.066;2023-08-01T14:11:45;2.22;;;1.77;;
23044;SDS011;11690;51.716;23.066;2023-08-01T14:14:12;2.47;;;1.50;;
23044;SDS011;11690;51.716;23.066;2023-08-01T14:16:43;4.13;;;1.60;;
23044;SDS011;11690;51.716;23.066;2023-08-01T14:19:11;4.68;;;1.83;;
23044;SDS011;11690;51.716;23.066;2023-08-01T14:21:38;2.60;;;1.65;;
23044;SDS011;11690;51.716;23.066;2023-08-01T14:24:05;2.47;;;1.52;;
23044;SDS011;11690;51.716;23.066;2023-08-01T14:26:32;1.45;;;1.15;;
23044;SDS011;11690;51.716;23.066;2023-08-01T14:29:00;2.58;;;1.60;;
23044;SDS011;11690;51.716;23.066;2023-08-01T14:31:26;2.25;;;1.50;;
23044;SDS011;11690;51.716;23.066;2023-08-01T14:33:54;6.18;;;1.67;;
23044;SDS011;11690;51.716;23.066;2023-08-01T14:36:21;1.67;;;1.33;;
23044;SDS011;11690;51.716;23.066;2023-08-01T14:38:48;2.58;;;1.67;;
23044;SDS011;11690;51.716;23.066;2023-08-01T14:41:23;8.07;;;1.83;;